sensor_id;sensor_type;location;lat;lon;timestamp;pressure;altitude;pressure_sealevel;temperature;humidity
25560;BME280;13450;49.374;8.584;2022-08-19T00:00:42;100047.66;;;21.39;87.93
25560;BME280;13450;49.374;8.584;2022-08-19T00:03:07;100050.09;;;21.40;92.65
25560;BME280;13450;49.374;8.584;2022-08-19T00:05:33;100043.28;;;21.38;85.49
25560;BME280;13450;49.374;8.584;2022-08-19T00:07:58;100036.19;;;21.37;86.66
25560;BME280;13450;49.374;8.584;2022-08-19T00:10:26;100031.59;;;21.37;86.06
25560;BME280;13450;49.374;8.584;2022-08-19T00:12:52;100029.13;;;21.36;86.31
25560;BME280;13450;49.374;8.584;2022-08-19T00:15:19;100028.88;;;21.37;88.24
25560;BME280;13450;49.374;8.584;2022-08-19T00:17:45;100030.22;;;21.35;87.24
25560;BME280;13450;49.374;8.584;2022-08-19T00:20:15;100032.38;;;21.33;87.15
25560;BME280;13450;49.374;8.584;2022-08-19T00:22:44;100032.94;;;21.35;91.11
25560;BME280;13450;49.374;8.584;2022-08-19T00:25:10;100035.94;;;21.33;90.18
25560;BME280;13450;49.374;8.584;2022-08-19T00:27:35;100037.03;;;21.32;90.07
25560;BME280;13450;49.374;8.584;2022-08-19T00:30:01;100041.63;;;21.32;89.13
25560;BME280;13450;49.374;8.584;2022-08-19T00:32:28;100039.75;;;21.32;92.67
25560;BME280;13450;49.374;8.584;2022-08-19T00:34:54;100039.44;;;21.28;93.46
25560;BME280;13450;49.374;8.584;2022-08-19T00:37:23;100035.09;;;21.27;96.27
25560;BME280;13450;49.374;8.584;2022-08-19T00:39:50;100030.16;;;21.24;91.48
25560;BME280;13450;49.374;8.584;2022-08-19T00:42:17;100024.72;;;21.24;91.88
25560;BME280;13450;49.374;8.584;2022-08-19T00:44:43;100015.50;;;21.25;90.12
25560;BME280;13450;49.374;8.584;2022-08-19T00:47:09;100010.88;;;21.26;91.35
25560;BME280;13450;49.374;8.584;2022-08-19T00:49:37;100017.94;;;21.27;89.06
25560;BME280;13450;49.374;8.584;2022-08-19T00:52:18;100024.19;;;21.27;89.76
25560;BME280;13450;49.374;8.584;2022-08-19T00:54:45;100022.00;;;21.24;93.98
25560;BME280;13450;49.374;8.584;2022-08-19T00:57:15;100032.34;;;21.22;92.59
25560;BME280;13450;49.374;8.584;2022-08-19T00:59:44;100030.41;;;21.17;91.50
25560;BME280;13450;49.374;8.584;2022-08-19T01:02:11;100032.59;;;21.15;94.53
25560;BME280;13450;49.374;8.584;2022-08-19T01:04:36;100024.97;;;21.12;94.16
25560;BME280;13450;49.374;8.584;2022-08-19T01:07:02;100024.69;;;21.09;93.76
25560;BME280;13450;49.374;8.584;2022-08-19T01:09:28;100013.81;;;21.09;96.76
25560;BME280;13450;49.374;8.584;2022-08-19T01:11:54;100009.47;;;21.08;91.68
25560;BME280;13450;49.374;8.584;2022-08-19T01:14:20;100014.91;;;21.08;91.55
25560;BME280;13450;49.374;8.584;2022-08-19T01:16:46;100018.16;;;21.10;96.00
25560;BME280;13450;49.374;8.584;2022-08-19T01:19:33;100019.78;;;21.11;92.07
25560;BME280;13450;49.374;8.584;2022-08-19T01:22:12;100043.72;;;21.09;89.88
25560;BME280;13450;49.374;8.584;2022-08-19T01:24:40;100032.84;;;21.09;93.24
25560;BME280;13450;49.374;8.584;2022-08-19T01:27:06;100034.47;;;21.10;93.04
25560;BME280;13450;49.374;8.584;2022-08-19T01:29:37;100026.31;;;21.10;95.35
25560;BME280;13450;49.374;8.584;2022-08-19T01:32:04;100033.09;;;21.07;91.89
25560;BME280;13450;49.374;8.584;2022-08-19T01:34:30;100033.94;;;21.08;94.30
25560;BME280;13450;49.374;8.584;2022-08-19T01:36:55;100020.34;;;21.08;96.65
25560;BME280;13450;49.374;8.584;2022-08-19T01:39:25;100024.13;;;21.07;90.32
25560;BME280;13450;49.374;8.584;2022-08-19T01:41:51;100027.94;;;21.06;93.77
25560;BME280;13450;49.374;8.584;2022-08-19T01:44:20;100019.22;;;21.03;92.29
25560;BME280;13450;49.374;8.584;2022-08-19T01:46:50;100009.44;;;21.02;93.30
25560;BME280;13450;49.374;8.584;2022-08-19T01:49:18;100012.16;;;21.02;93.62
25560;BME280;13450;49.374;8.584;2022-08-19T01:51:44;100014.31;;;21.00;91.47
25560;BME280;13450;49.374;8.584;2022-08-19T01:54:13;100020.28;;;20.97;95.85
25560;BME280;13450;49.374;8.584;2022-08-19T01:56:40;100020.56;;;20.96;97.67
25560;BME280;13450;49.374;8.584;2022-08-19T01:59:10;100024.09;;;20.96;92.65
25560;BME280;13450;49.374;8.584;2022-08-19T02:01:39;100034.31;;;20.84;98.82
25560;BME280;13450;49.374;8.584;2022-08-19T02:04:07;100040.31;;;20.86;96.70
25560;BME280;13450;49.374;8.584;2022-08-19T02:06:33;100037.88;;;20.84;98.46
25560;BME280;13450;49.374;8.584;2022-08-19T02:08:58;100045.47;;;20.82;96.50
25560;BME280;13450;49.374;8.584;2022-08-19T02:11:27;100037.31;;;20.82;96.03
25560;BME280;13450;49.374;8.584;2022-08-19T02:13:56;100047.38;;;20.82;95.74
25560;BME280;13450;49.374;8.584;2022-08-19T02:16:23;100044.38;;;20.78;97.80
25560;BME280;13450;49.374;8.584;2022-08-19T02:18:50;100045.16;;;20.78;96.25
25560;BME280;13450;49.374;8.584;2022-08-19T02:21:18;100043.03;;;20.81;97.85
25560;BME280;13450;49.374;8.584;2022-08-19T02:23:44;100052.22;;;20.80;98.25
25560;BME280;13450;49.374;8.584;2022-08-19T02:26:10;100054.41;;;20.77;96.61
25560;BME280;13450;49.374;8.584;2022-08-19T02:28:36;100064.19;;;20.78;95.62
25560;BME280;13450;49.374;8.584;2022-08-19T02:31:01;100062.56;;;20.77;93.68
25560;BME280;13450;49.374;8.584;2022-08-19T02:33:27;100061.78;;;20.82;95.54
25560;BME280;13450;49.374;8.584;2022-08-19T02:35:53;100053.34;;;20.84;95.02
25560;BME280;13450;49.374;8.584;2022-08-19T02:38:18;100056.16;;;20.89;93.37
25560;BME280;13450;49.374;8.584;2022-08-19T02:40:57;100042.25;;;20.90;92.47
25560;BME280;13450;49.374;8.584;2022-08-19T02:43:26;100046.34;;;20.93;92.82
25560;BME280;13450;49.374;8.584;2022-08-19T02:45:54;100040.91;;;20.93;91.16
25560;BME280;13450;49.374;8.584;2022-08-19T02:48:22;100046.34;;;20.93;90.62
25560;BME280;13450;49.374;8.584;2022-08-19T02:50:49;100046.34;;;20.93;91.97
25560;BME280;13450;49.374;8.584;2022-08-19T02:53:22;100045.28;;;20.94;89.75
25560;BME280;13450;49.374;8.584;2022-08-19T02:55:50;100045.28;;;20.94;93.33
25560;BME280;13450;49.374;8.584;2022-08-19T02:58:16;100040.38;;;20.91;88.44
25560;BME280;13450;49.374;8.584;2022-08-19T03:00:44;100043.09;;;20.91;92.40
25560;BME280;13450;49.374;8.584;2022-08-19T03:03:10;100025.16;;;20.90;96.07
25560;BME280;13450;49.374;8.584;2022-08-19T03:05:36;100028.97;;;20.89;92.56
25560;BME280;13450;49.374;8.584;2022-08-19T03:08:01;100025.69;;;20.87;94.55
25560;BME280;13450;49.374;8.584;2022-08-19T03:10:29;100027.50;;;20.81;93.62
25560;BME280;13450;49.374;8.584;2022-08-19T03:12:54;100024.50;;;20.77;97.29
25560;BME280;13450;49.374;8.584;2022-08-19T03:15:20;100026.41;;;20.77;96.31
25560;BME280;13450;49.374;8.584;2022-08-19T03:17:45;100032.13;;;20.75;96.32
25560;BME280;13450;49.374;8.584;2022-08-19T03:20:10;100027.75;;;20.74;98.30
25560;BME280;13450;49.374;8.584;2022-08-19T03:22:36;100030.19;;;20.71;98.74
25560;BME280;13450;49.374;8.584;2022-08-19T03:25:02;100031.78;;;20.67;99.70
25560;BME280;13450;49.374;8.584;2022-08-19T03:27:28;100022.84;;;20.71;96.75
25560;BME280;13450;49.374;8.584;2022-08-19T03:29:55;100033.09;;;20.59;100.00
25560;BME280;13450;49.374;8.584;2022-08-19T03:32:21;100029.78;;;20.51;100.00
25560;BME280;13450;49.374;8.584;2022-08-19T03:34:49;100040.09;;;20.44;99.93
25560;BME280;13450;49.374;8.584;2022-08-19T03:37:15;100044.94;;;20.42;100.00
25560;BME280;13450;49.374;8.584;2022-08-19T03:39:42;100047.38;;;20.38;100.00
25560;BME280;13450;49.374;8.584;2022-08-19T03:42:09;100056.59;;;20.37;100.00
25560;BME280;13450;49.374;8.584;2022-08-19T03:44:34;100053.56;;;20.34;99.11
25560;BME280;13450;49.374;8.584;2022-08-19T03:47:03;100063.41;;;20.40;98.00
25560;BME280;13450;49.374;8.584;2022-08-19T03:49:32;100066.69;;;20.42;100.00
25560;BME280;13450;49.374;8.584;2022-08-19T03:52:00;100062.63;;;20.45;98.38
25560;BME280;13450;49.374;8.584;2022-08-19T03:54:27;100071.03;;;20.43;96.48
25560;BME280;13450;49.374;8.584;2022-08-19T03:56:54;100063.16;;;20.42;96.72
25560;BME280;13450;49.374;8.584;2022-08-19T03:59:29;100061.50;;;20.41;99.57
25560;BME280;13450;49.374;8.584;2022-08-19T04:01:58;100059.03;;;20.39;99.80
25560;BME280;13450;49.374;8.584;2022-08-19T04:04:24;100055.53;;;20.38;99.03
25560;BME280;13450;49.374;8.584;2022-08-19T04:06:50;100056.59;;;20.37;100.00
25560;BME280;13450;49.374;8.584;2022-08-19T04:09:17;100056.88;;;20.36;95.36
25560;BME280;13450;49.374;8.584;2022-08-19T04:11:46;100059.56;;;20.36;99.59
25560;BME280;13450;49.374;8.584;2022-08-19T04:14:17;100056.59;;;20.37;99.46
25560;BME280;13450;49.374;8.584;2022-08-19T04:16:44;100059.03;;;20.39;100.00
25560;BME280;13450;49.374;8.584;2022-08-19T04:19:10;100053.59;;;20.39;100.00
25560;BME280;13450;49.374;8.584;2022-08-19T04:21:38;100046.53;;;20.38;100.00
25560;BME280;13450;49.374;8.584;2022-08-19T04:24:07;100042.75;;;20.39;100.00
25560;BME280;13450;49.374;8.584;2022-08-19T04:26:37;100053.59;;;20.39;100.00
25560;BME280;13450;49.374;8.584;2022-08-19T04:29:07;100054.16;;;20.36;97.89
25560;BME280;13450;49.374;8.584;2022-08-19T04:31:33;100057.13;;;20.34;97.25
25560;BME280;13450;49.374;8.584;2022-08-19T04:34:08;100060.09;;;20.33;95.51
25560;BME280;13450;49.374;8.584;2022-08-19T04:36:37;100055.75;;;20.32;95.34
25560;BME280;13450;49.374;8.584;2022-08-19T04:39:10;100052.19;;;20.31;95.74
25560;BME280;13450;49.374;8.584;2022-08-19T04:41:37;100044.88;;;20.32;98.23
25560;BME280;13450;49.374;8.584;2022-08-19T04:44:21;100049.22;;;20.33;97.55
25560;BME280;13450;49.374;8.584;2022-08-19T04:46:51;100050.06;;;20.33;96.83
25560;BME280;13450;49.374;8.584;2022-08-19T04:49:19;100043.28;;;20.36;97.74
25560;BME280;13450;49.374;8.584;2022-08-19T04:51:46;100063.66;;;20.38;97.96
25560;BME280;13450;49.374;8.584;2022-08-19T04:54:13;100063.41;;;20.40;94.72
25560;BME280;13450;49.374;8.584;2022-08-19T04:56:40;100058.53;;;20.42;96.19
25560;BME280;13450;49.374;8.584;2022-08-19T04:59:06;100067.25;;;20.44;96.03
25560;BME280;13450;49.374;8.584;2022-08-19T05:01:35;100064.56;;;20.49;94.14
25560;BME280;13450;49.374;8.584;2022-08-19T05:04:04;100065.69;;;20.54;95.78
25560;BME280;13450;49.374;8.584;2022-08-19T05:06:31;100066.22;;;20.56;93.97
25560;BME280;13450;49.374;8.584;2022-08-19T05:08:58;100058.38;;;20.59;99.13
25560;BME280;13450;49.374;8.584;2022-08-19T05:11:26;100064.63;;;20.60;96.81
25560;BME280;13450;49.374;8.584;2022-08-19T05:13:52;100069.56;;;20.63;98.58
25560;BME280;13450;49.374;8.584;2022-08-19T05:16:22;100073.66;;;20.65;97.56
25560;BME280;13450;49.374;8.584;2022-08-19T05:18:48;100085.63;;;20.70;94.38
25560;BME280;13450;49.374;8.584;2022-08-19T05:21:33;100076.69;;;20.74;95.21
25560;BME280;13450;49.374;8.584;2022-08-19T05:24:19;100078.34;;;20.81;95.65
25560;BME280;13450;49.374;8.584;2022-08-19T05:26:47;100080.06;;;20.87;96.17
25560;BME280;13450;49.374;8.584;2022-08-19T05:29:14;100080.91;;;20.93;95.80
25560;BME280;13450;49.374;8.584;2022-08-19T05:31:41;100080.09;;;20.97;95.94
25560;BME280;13450;49.374;8.584;2022-08-19T05:34:07;100096.72;;;21.01;94.18
25560;BME280;13450;49.374;8.584;2022-08-19T05:36:36;100098.63;;;21.06;93.70
25560;BME280;13450;49.374;8.584;2022-08-19T05:39:04;100106.53;;;21.07;93.45
25560;BME280;13450;49.374;8.584;2022-08-19T05:41:33;100108.16;;;21.08;94.01
25560;BME280;13450;49.374;8.584;2022-08-19T05:44:03;100108.47;;;21.12;93.25
25560;BME280;13450;49.374;8.584;2022-08-19T05:46:32;100115.03;;;21.16;95.22
25560;BME280;13450;49.374;8.584;2022-08-19T05:48:57;100123.72;;;21.18;93.69
25560;BME280;13450;49.374;8.584;2022-08-19T05:51:23;100122.13;;;21.22;92.84
25560;BME280;13450;49.374;8.584;2022-08-19T05:53:49;100129.75;;;21.25;92.55
25560;BME280;13450;49.374;8.584;2022-08-19T05:56:16;100130.88;;;21.29;92.20
25560;BME280;13450;49.374;8.584;2022-08-19T05:58:45;100124.34;;;21.36;93.08
25560;BME280;13450;49.374;8.584;2022-08-19T06:01:15;100147.25;;;21.40;91.07
25560;BME280;13450;49.374;8.584;2022-08-19T06:03:41;100139.34;;;21.43;90.21
25560;BME280;13450;49.374;8.584;2022-08-19T06:06:08;100142.34;;;21.47;92.52
25560;BME280;13450;49.374;8.584;2022-08-19T06:08:37;100148.34;;;21.44;90.38
25560;BME280;13450;49.374;8.584;2022-08-19T06:13:44;100150.25;;;21.49;90.66
25560;BME280;13450;49.374;8.584;2022-08-19T06:16:13;100158.16;;;21.50;90.68
25560;BME280;13450;49.374;8.584;2022-08-19T06:18:46;100159.78;;;21.51;91.37
25560;BME280;13450;49.374;8.584;2022-08-19T06:21:11;100158.44;;;21.54;89.17
25560;BME280;13450;49.374;8.584;2022-08-19T06:23:37;100153.81;;;21.54;91.03
25560;BME280;13450;49.374;8.584;2022-08-19T06:26:02;100157.66;;;21.59;90.76
25560;BME280;13450;49.374;8.584;2022-08-19T06:28:28;100163.13;;;21.64;91.10
25560;BME280;13450;49.374;8.584;2022-08-19T06:30:53;100171.84;;;21.66;91.84
25560;BME280;13450;49.374;8.584;2022-08-19T06:33:18;100170.81;;;21.72;89.82
25560;BME280;13450;49.374;8.584;2022-08-19T06:35:46;100171.66;;;21.78;89.94
25560;BME280;13450;49.374;8.584;2022-08-19T06:38:14;100167.00;;;21.84;88.03
25560;BME280;13450;49.374;8.584;2022-08-19T06:40:39;100161.31;;;21.90;88.85
25560;BME280;13450;49.374;8.584;2022-08-19T06:43:04;100162.72;;;21.98;87.10
25560;BME280;13450;49.374;8.584;2022-08-19T06:45:30;100167.66;;;22.06;84.58
25560;BME280;13450;49.374;8.584;2022-08-19T06:47:55;100175.81;;;22.12;86.73
25560;BME280;13450;49.374;8.584;2022-08-19T06:50:24;100176.63;;;22.12;87.62
25560;BME280;13450;49.374;8.584;2022-08-19T06:52:49;100174.19;;;22.26;86.60
25560;BME280;13450;49.374;8.584;2022-08-19T06:55:15;100181.84;;;22.34;84.96
25560;BME280;13450;49.374;8.584;2022-08-19T06:57:43;100185.94;;;22.42;84.15
25560;BME280;13450;49.374;8.584;2022-08-19T07:00:13;100177.53;;;22.59;84.10
25560;BME280;13450;49.374;8.584;2022-08-19T07:02:41;100184.06;;;22.64;83.82
25560;BME280;13450;49.374;8.584;2022-08-19T07:05:06;100181.63;;;22.78;83.58
25560;BME280;13450;49.374;8.584;2022-08-19T07:07:32;100179.69;;;22.89;81.03
25560;BME280;13450;49.374;8.584;2022-08-19T07:09:59;100184.03;;;23.00;81.17
25560;BME280;13450;49.374;8.584;2022-08-19T07:12:25;100179.41;;;23.01;79.71
25560;BME280;13450;49.374;8.584;2022-08-19T07:14:51;100184.03;;;23.16;78.90
25560;BME280;13450;49.374;8.584;2022-08-19T07:17:17;100176.88;;;23.30;78.11
25560;BME280;13450;49.374;8.584;2022-08-19T07:19:45;100179.06;;;23.44;77.67
25560;BME280;13450;49.374;8.584;2022-08-19T07:22:10;100168.66;;;23.51;76.03
25560;BME280;13450;49.374;8.584;2022-08-19T07:24:36;100170.31;;;23.52;76.09
25560;BME280;13450;49.374;8.584;2022-08-19T07:27:04;100167.00;;;23.60;75.17
25560;BME280;13450;49.374;8.584;2022-08-19T07:29:32;100174.13;;;23.51;76.08
25560;BME280;13450;49.374;8.584;2022-08-19T07:31:59;100164.00;;;23.51;76.25
25560;BME280;13450;49.374;8.584;2022-08-19T07:34:26;100170.78;;;23.70;75.44
25560;BME280;13450;49.374;8.584;2022-08-19T07:36:52;100171.84;;;23.74;73.86
25560;BME280;13450;49.374;8.584;2022-08-19T07:39:25;100173.41;;;23.85;72.81
25560;BME280;13450;49.374;8.584;2022-08-19T07:41:51;100167.16;;;23.85;73.52
25560;BME280;13450;49.374;8.584;2022-08-19T07:44:24;100176.75;;;23.72;73.07
25560;BME280;13450;49.374;8.584;2022-08-19T07:46:53;100179.47;;;23.82;73.11
25560;BME280;13450;49.374;8.584;2022-08-19T07:49:19;100173.47;;;23.75;73.93
25560;BME280;13450;49.374;8.584;2022-08-19T07:51:48;100174.28;;;23.81;73.79
25560;BME280;13450;49.374;8.584;2022-08-19T07:54:14;100184.94;;;23.72;74.30
25560;BME280;13450;49.374;8.584;2022-08-19T07:56:39;100179.19;;;23.78;73.49
25560;BME280;13450;49.374;8.584;2022-08-19T07:59:05;100181.09;;;23.83;73.66
25560;BME280;13450;49.374;8.584;2022-08-19T08:01:30;100174.00;;;23.82;73.01
25560;BME280;13450;49.374;8.584;2022-08-19T08:03:58;100174.03;;;23.72;72.27
25560;BME280;13450;49.374;8.584;2022-08-19T08:06:42;100172.72;;;23.59;73.20
25560;BME280;13450;49.374;8.584;2022-08-19T08:09:32;100174.13;;;23.51;73.60
25560;BME280;13450;49.374;8.584;2022-08-19T08:12:02;100173.31;;;23.50;73.74
25560;BME280;13450;49.374;8.584;2022-08-19T08:14:49;100173.00;;;23.57;73.69
25560;BME280;13450;49.374;8.584;2022-08-19T08:17:18;100169.16;;;23.63;73.56
25560;BME280;13450;49.374;8.584;2022-08-19T08:19:46;100171.28;;;23.77;72.90
25560;BME280;13450;49.374;8.584;2022-08-19T08:22:15;100174.19;;;23.96;72.81
25560;BME280;13450;49.374;8.584;2022-08-19T08:27:36;100179.88;;;24.05;70.69
25560;BME280;13450;49.374;8.584;2022-08-19T08:30:03;100168.31;;;24.24;69.94
25560;BME280;13450;49.374;8.584;2022-08-19T08:32:29;100174.25;;;24.31;69.57
25560;BME280;13450;49.374;8.584;2022-08-19T08:34:58;100159.34;;;24.53;67.77
25560;BME280;13450;49.374;8.584;2022-08-19T08:37:24;100170.56;;;24.81;66.84
25560;BME280;13450;49.374;8.584;2022-08-19T08:39:49;100179.13;;;25.04;64.70
25560;BME280;13450;49.374;8.584;2022-08-19T08:42:22;100182.22;;;25.21;63.23
25560;BME280;13450;49.374;8.584;2022-08-19T08:44:58;100185.94;;;25.36;61.79
25560;BME280;13450;49.374;8.584;2022-08-19T08:47:25;100197.09;;;25.40;60.40
25560;BME280;13450;49.374;8.584;2022-08-19T08:49:55;100184.63;;;25.53;60.06
25560;BME280;13450;49.374;8.584;2022-08-19T08:52:26;100190.94;;;25.78;58.69
25560;BME280;13450;49.374;8.584;2022-08-19T08:54:57;100180.88;;;25.92;58.11
25560;BME280;13450;49.374;8.584;2022-08-19T08:57:38;100179.59;;;25.84;57.56
25560;BME280;13450;49.374;8.584;2022-08-19T09:00:08;100196.72;;;25.95;56.55
25560;BME280;13450;49.374;8.584;2022-08-19T09:02:35;100189.75;;;25.84;55.79
25560;BME280;13450;49.374;8.584;2022-08-19T09:05:03;100184.72;;;25.91;56.25
25560;BME280;13450;49.374;8.584;2022-08-19T09:10:22;100185.09;;;26.04;55.91
25560;BME280;13450;49.374;8.584;2022-08-19T09:13:47;100194.28;;;25.94;56.64
25560;BME280;13450;49.374;8.584;2022-08-19T09:16:17;100190.63;;;25.98;56.04
25560;BME280;13450;49.374;8.584;2022-08-19T09:18:51;100174.19;;;25.98;56.10
25560;BME280;13450;49.374;8.584;2022-08-19T09:21:21;100181.41;;;25.94;55.67
25560;BME280;13450;49.374;8.584;2022-08-19T09:23:50;100179.47;;;26.14;56.13
25560;BME280;13450;49.374;8.584;2022-08-19T09:26:18;100184.19;;;26.08;55.52
25560;BME280;13450;49.374;8.584;2022-08-19T09:28:47;100188.72;;;26.18;54.63
25560;BME280;13450;49.374;8.584;2022-08-19T09:31:19;100183.16;;;26.23;54.39
25560;BME280;13450;49.374;8.584;2022-08-19T09:33:45;100178.09;;;26.50;54.37
25560;BME280;13450;49.374;8.584;2022-08-19T09:36:13;100172.94;;;26.82;52.72
25560;BME280;13450;49.374;8.584;2022-08-19T09:38:39;100169.31;;;27.00;52.01
25560;BME280;13450;49.374;8.584;2022-08-19T09:41:12;100181.34;;;27.19;52.43
25560;BME280;13450;49.374;8.584;2022-08-19T09:43:41;100175.03;;;27.18;50.08
25560;BME280;13450;49.374;8.584;2022-08-19T09:46:09;100176.06;;;27.22;49.81
25560;BME280;13450;49.374;8.584;2022-08-19T09:48:40;100176.06;;;27.22;49.17
25560;BME280;13450;49.374;8.584;2022-08-19T09:51:12;100181.66;;;27.17;48.09
25560;BME280;13450;49.374;8.584;2022-08-19T09:53:40;100179.47;;;27.00;47.51
25560;BME280;13450;49.374;8.584;2022-08-19T09:56:06;100178.88;;;27.03;48.28
25560;BME280;13450;49.374;8.584;2022-08-19T09:58:33;100174.84;;;27.14;47.23
25560;BME280;13450;49.374;8.584;2022-08-19T10:00:59;100177.66;;;27.51;47.96
25560;BME280;13450;49.374;8.584;2022-08-19T10:03:26;100179.91;;;27.63;46.68
25560;BME280;13450;49.374;8.584;2022-08-19T10:05:52;100181.88;;;27.63;46.68
25560;BME280;13450;49.374;8.584;2022-08-19T10:08:24;100178.66;;;27.84;46.66
25560;BME280;13450;49.374;8.584;2022-08-19T10:10:51;100177.81;;;27.97;46.38
25560;BME280;13450;49.374;8.584;2022-08-19T10:13:19;100186.81;;;27.89;45.99
25560;BME280;13450;49.374;8.584;2022-08-19T10:15:49;100188.38;;;28.04;46.69
25560;BME280;13450;49.374;8.584;2022-08-19T10:18:16;100181.66;;;28.10;45.14
25560;BME280;13450;49.374;8.584;2022-08-19T10:20:46;100183.44;;;28.29;45.07
25560;BME280;13450;49.374;8.584;2022-08-19T10:23:12;100185.63;;;28.41;44.29
25560;BME280;13450;49.374;8.584;2022-08-19T10:25:38;100183.88;;;28.45;44.43
25560;BME280;13450;49.374;8.584;2022-08-19T10:28:04;100190.13;;;28.37;45.75
25560;BME280;13450;49.374;8.584;2022-08-19T10:30:30;100188.66;;;28.53;44.13
25560;BME280;13450;49.374;8.584;2022-08-19T10:32:56;100185.59;;;28.55;43.63
25560;BME280;13450;49.374;8.584;2022-08-19T10:35:23;100183.44;;;28.75;44.79
25560;BME280;13450;49.374;8.584;2022-08-19T10:37:53;100173.25;;;29.07;44.32
25560;BME280;13450;49.374;8.584;2022-08-19T10:40:18;100178.34;;;29.22;42.74
25560;BME280;13450;49.374;8.584;2022-08-19T10:42:44;100174.53;;;29.50;42.17
25560;BME280;13450;49.374;8.584;2022-08-19T10:45:10;100173.31;;;29.24;43.32
25560;BME280;13450;49.374;8.584;2022-08-19T10:47:35;100179.06;;;29.46;42.63
25560;BME280;13450;49.374;8.584;2022-08-19T10:50:00;100171.28;;;29.48;41.24
25560;BME280;13450;49.374;8.584;2022-08-19T10:52:46;100177.75;;;30.19;40.82
25560;BME280;13450;49.374;8.584;2022-08-19T10:55:12;100176.94;;;30.19;39.52
25560;BME280;13450;49.374;8.584;2022-08-19T10:57:56;100168.31;;;30.20;39.25
25560;BME280;13450;49.374;8.584;2022-08-19T11:00:23;100166.00;;;30.75;39.00
25560;BME280;13450;49.374;8.584;2022-08-19T11:02:50;100163.28;;;31.05;40.42
25560;BME280;13450;49.374;8.584;2022-08-19T11:05:15;100159.91;;;31.30;39.29
25560;BME280;13450;49.374;8.584;2022-08-19T11:07:43;100146.78;;;31.78;37.51
25560;BME280;13450;49.374;8.584;2022-08-19T11:10:13;100140.47;;;31.78;37.38
25560;BME280;13450;49.374;8.584;2022-08-19T11:12:40;100137.97;;;32.06;36.36
25560;BME280;13450;49.374;8.584;2022-08-19T11:15:07;100133.25;;;31.34;37.76
25560;BME280;13450;49.374;8.584;2022-08-19T11:17:37;100128.25;;;31.57;39.46
25560;BME280;13450;49.374;8.584;2022-08-19T11:20:06;100126.66;;;33.42;35.51
25560;BME280;13450;49.374;8.584;2022-08-19T11:22:34;100120.31;;;34.23;34.20
25560;BME280;13450;49.374;8.584;2022-08-19T11:25:00;100123.81;;;35.69;31.07
25560;BME280;13450;49.374;8.584;2022-08-19T11:27:25;100121.38;;;36.07;30.16
25560;BME280;13450;49.374;8.584;2022-08-19T11:29:51;100122.81;;;35.97;30.18
25560;BME280;13450;49.374;8.584;2022-08-19T11:32:21;100127.09;;;36.57;29.33
25560;BME280;13450;49.374;8.584;2022-08-19T11:34:46;100132.38;;;37.36;28.81
25560;BME280;13450;49.374;8.584;2022-08-19T11:37:11;100118.56;;;37.78;28.08
25560;BME280;13450;49.374;8.584;2022-08-19T11:39:37;100127.16;;;36.61;28.22
25560;BME280;13450;49.374;8.584;2022-08-19T11:42:05;100130.16;;;37.53;28.21
25560;BME280;13450;49.374;8.584;2022-08-19T11:44:52;100125.66;;;37.72;26.92
25560;BME280;13450;49.374;8.584;2022-08-19T11:47:18;100119.34;;;37.78;26.38
25560;BME280;13450;49.374;8.584;2022-08-19T11:49:47;100113.56;;;37.06;27.65
25560;BME280;13450;49.374;8.584;2022-08-19T11:52:12;100119.59;;;35.75;28.97
25560;BME280;13450;49.374;8.584;2022-08-19T11:54:38;100113.84;;;34.19;31.40
25560;BME280;13450;49.374;8.584;2022-08-19T11:57:03;100116.63;;;34.19;31.62
25560;BME280;13450;49.374;8.584;2022-08-19T11:59:31;100115.41;;;35.29;29.50
25560;BME280;13450;49.374;8.584;2022-08-19T12:01:57;100120.41;;;35.59;30.97
25560;BME280;13450;49.374;8.584;2022-08-19T12:04:23;100112.97;;;36.03;27.68
25560;BME280;13450;49.374;8.584;2022-08-19T12:06:48;100111.03;;;37.82;25.92
25560;BME280;13450;49.374;8.584;2022-08-19T12:09:15;100114.84;;;37.39;26.07
25560;BME280;13450;49.374;8.584;2022-08-19T12:11:40;100109.47;;;36.06;27.15
25560;BME280;13450;49.374;8.584;2022-08-19T12:14:09;100112.78;;;34.85;27.96
25560;BME280;13450;49.374;8.584;2022-08-19T12:16:34;100119.25;;;34.28;29.96
25560;BME280;13450;49.374;8.584;2022-08-19T12:19:00;100113.72;;;35.08;29.11
25560;BME280;13450;49.374;8.584;2022-08-19T12:21:29;100111.09;;;35.68;28.54
25560;BME280;13450;49.374;8.584;2022-08-19T12:23:59;100109.50;;;36.30;27.61
25560;BME280;13450;49.374;8.584;2022-08-19T12:26:28;100122.13;;;35.28;29.42
25560;BME280;13450;49.374;8.584;2022-08-19T12:28:54;100132.44;;;33.90;30.42
25560;BME280;13450;49.374;8.584;2022-08-19T12:31:20;100125.97;;;33.57;33.66
25560;BME280;13450;49.374;8.584;2022-08-19T12:33:46;100124.88;;;32.62;32.03
25560;BME280;13450;49.374;8.584;2022-08-19T12:36:14;100131.13;;;31.82;32.83
25560;BME280;13450;49.374;8.584;2022-08-19T12:38:40;100132.59;;;31.37;33.55
25560;BME280;13450;49.374;8.584;2022-08-19T12:41:07;100120.41;;;31.38;33.59
25560;BME280;13450;49.374;8.584;2022-08-19T12:43:37;100126.50;;;32.51;32.83
25560;BME280;13450;49.374;8.584;2022-08-19T12:46:07;100127.72;;;34.64;29.83
25560;BME280;13450;49.374;8.584;2022-08-19T12:48:33;100129.63;;;34.02;30.76
25560;BME280;13450;49.374;8.584;2022-08-19T12:50:59;100121.25;;;33.20;30.25
25560;BME280;13450;49.374;8.584;2022-08-19T12:53:24;100125.25;;;32.60;32.31
25560;BME280;13450;49.374;8.584;2022-08-19T12:55:56;100124.03;;;34.15;29.63
25560;BME280;13450;49.374;8.584;2022-08-19T12:58:22;100137.94;;;33.74;29.28
25560;BME280;13450;49.374;8.584;2022-08-19T13:00:48;100120.91;;;36.21;27.43
25560;BME280;13450;49.374;8.584;2022-08-19T13:03:14;100136.94;;;38.55;24.01